createdAt,value
2023-05-19T00:00:01.145Z,53.24
2023-05-19T00:01:00.718Z,53.16
2023-05-19T00:02:00.814Z,53.16
2023-05-19T00:03:00.816Z,53.16
2023-05-19T00:04:00.638Z,53.16
2023-05-19T00:05:00.751Z,53.16
2023-05-19T00:06:01.226Z,53.17
2023-05-19T00:07:01.843Z,53.17
2023-05-19T00:08:00.629Z,53.17
2023-05-19T00:09:02.823Z,53.17
2023-05-19T00:10:00.656Z,53.17
2023-05-19T00:11:00.682Z,53.14
2023-05-19T00:12:00.594Z,53.14
2023-05-19T00:13:00.712Z,53.14
2023-05-19T00:14:01.290Z,53.14
2023-05-19T00:15:00.585Z,53.14
2023-05-19T00:16:00.731Z,52.95
2023-05-19T00:17:00.756Z,52.95
2023-05-19T00:18:00.660Z,52.95
2023-05-19T00:19:01.961Z,52.95
2023-05-19T00:20:00.643Z,52.95
2023-05-19T00:21:00.539Z,52.69
2023-05-19T00:22:00.540Z,52.69
2023-05-19T00:23:00.536Z,52.69
2023-05-19T00:24:00.543Z,52.69
2023-05-19T00:25:00.546Z,52.69
2023-05-19T00:26:00.560Z,52.90
2023-05-19T00:27:00.564Z,52.90
2023-05-19T00:28:00.579Z,52.90
2023-05-19T00:29:00.561Z,52.90
2023-05-19T00:30:00.622Z,52.90
2023-05-19T00:31:00.690Z,53.10
2023-05-19T00:32:00.563Z,53.10
2023-05-19T00:33:00.603Z,53.10
2023-05-19T00:34:00.683Z,53.10
2023-05-19T00:35:00.577Z,53.10
2023-05-19T00:36:01.226Z,53.02
2023-05-19T00:37:00.521Z,53.02
2023-05-19T00:38:00.583Z,53.02
2023-05-19T00:39:00.524Z,53.02
2023-05-19T00:40:00.564Z,53.02
2023-05-19T00:41:01.232Z,52.84
2023-05-19T00:42:00.568Z,52.84
2023-05-19T00:43:00.712Z,52.84
2023-05-19T00:44:00.551Z,52.84
2023-05-19T00:45:00.522Z,52.84
2023-05-19T00:46:00.751Z,52.85
2023-05-19T00:47:00.889Z,52.85
2023-05-19T00:48:00.593Z,52.85
2023-05-19T00:49:00.571Z,52.85
2023-05-19T00:50:00.635Z,52.85
2023-05-19T00:51:01.889Z,52.94
2023-05-19T00:52:00.736Z,52.94
2023-05-19T00:53:00.602Z,52.94
2023-05-19T00:54:00.582Z,52.94
2023-05-19T00:55:00.563Z,52.94
2023-05-19T00:56:01.357Z,53.12
2023-05-19T00:57:00.575Z,53.12
2023-05-19T00:58:00.578Z,53.12
2023-05-19T00:59:01.274Z,53.12
2023-05-19T01:00:00.589Z,53.12
2023-05-19T01:01:00.571Z,53.10
2023-05-19T01:02:00.556Z,53.10
2023-05-19T01:03:00.704Z,53.10
2023-05-19T01:04:00.639Z,53.10
2023-05-19T01:05:00.908Z,53.10
2023-05-19T01:06:00.845Z,53.19
2023-05-19T01:07:00.579Z,53.19
2023-05-19T01:08:00.657Z,53.19
2023-05-19T01:09:00.553Z,53.19
2023-05-19T01:10:00.603Z,53.19
2023-05-19T01:11:00.580Z,53.24
2023-05-19T01:12:00.746Z,53.24
2023-05-19T01:13:01.472Z,53.24
2023-05-19T01:14:00.567Z,53.24
2023-05-19T01:15:01.566Z,53.24
2023-05-19T01:16:10.411Z,53.10
2023-05-19T01:17:05.161Z,53.10
2023-05-19T01:18:04.062Z,53.10
2023-05-19T01:19:05.494Z,53.10
2023-05-19T01:20:10.381Z,53.10
2023-05-19T01:21:10.363Z,53.14
2023-05-19T01:22:10.380Z,53.14
2023-05-19T01:23:10.366Z,53.14
2023-05-19T01:24:10.385Z,53.14
2023-05-19T01:25:07.956Z,53.14
2023-05-19T01:26:10.362Z,53.33
2023-05-19T01:27:08.740Z,53.33
2023-05-19T01:28:10.435Z,53.33
2023-05-19T01:29:10.449Z,53.33
2023-05-19T01:30:03.821Z,53.33
2023-05-19T01:31:00.842Z,53.05
2023-05-19T01:32:02.812Z,53.05
2023-05-19T01:33:03.266Z,53.05
2023-05-19T01:34:01.770Z,53.05
2023-05-19T01:35:02.901Z,53.05
2023-05-19T01:36:01.932Z,53.17
2023-05-19T01:37:01.838Z,53.17
2023-05-19T01:38:02.135Z,53.17
2023-05-19T01:39:02.444Z,53.17
2023-05-19T01:40:00.748Z,53.17
2023-05-19T01:41:01.801Z,53.60
2023-05-19T01:42:01.221Z,53.60
2023-05-19T01:43:00.948Z,53.60
2023-05-19T01:44:01.090Z,53.60
2023-05-19T01:45:01.214Z,53.60
2023-05-19T01:46:01.653Z,53.74
2023-05-19T01:47:01.266Z,53.74
2023-05-19T01:48:01.838Z,53.74
2023-05-19T01:49:00.800Z,53.74
2023-05-19T01:50:00.632Z,53.74
2023-05-19T01:51:00.624Z,53.89
2023-05-19T01:52:00.868Z,53.89
2023-05-19T01:53:01.010Z,53.89
2023-05-19T01:54:00.787Z,53.89
2023-05-19T01:55:00.744Z,53.89
2023-05-19T01:56:00.635Z,54.23
2023-05-19T01:57:10.404Z,54.23
2023-05-19T01:58:08.595Z,54.23
2023-05-19T01:59:08.304Z,54.23
2023-05-19T02:00:00.675Z,54.23
2023-05-19T02:01:00.641Z,54.56
2023-05-19T02:02:05.241Z,54.56
2023-05-19T02:03:08.251Z,54.56
2023-05-19T02:04:07.768Z,54.56
2023-05-19T02:05:08.259Z,54.56
2023-05-19T02:06:10.389Z,54.69
2023-05-19T02:07:04.282Z,54.69
2023-05-19T02:08:05.242Z,54.69
2023-05-19T02:09:08.016Z,54.69
2023-05-19T02:10:04.981Z,54.69
2023-05-19T02:11:03.344Z,54.70
2023-05-19T02:12:05.326Z,54.70
2023-05-19T02:13:03.446Z,54.70
2023-05-19T02:14:04.716Z,54.70
2023-05-19T02:15:01.561Z,54.70
2023-05-19T02:16:03.308Z,54.97
2023-05-19T02:17:03.220Z,54.97
2023-05-19T02:18:01.602Z,54.97
2023-05-19T02:19:00.717Z,54.97
2023-05-19T02:20:00.961Z,54.97
2023-05-19T02:21:01.036Z,55.10
2023-05-19T02:22:00.656Z,55.10
2023-05-19T02:23:00.698Z,55.10
2023-05-19T02:24:00.701Z,55.10
2023-05-19T02:25:01.037Z,55.10
2023-05-19T02:26:00.685Z,55.01
2023-05-19T02:27:00.768Z,55.01
2023-05-19T02:28:00.875Z,55.01
2023-05-19T02:29:00.747Z,55.01
2023-05-19T02:30:00.776Z,55.01
2023-05-19T02:31:00.738Z,54.94
2023-05-19T02:32:00.794Z,54.94
2023-05-19T02:33:00.755Z,54.94
2023-05-19T02:34:00.646Z,54.94
2023-05-19T02:35:00.721Z,54.94
2023-05-19T02:36:00.708Z,55.19
2023-05-19T02:37:00.708Z,55.19
2023-05-19T02:38:00.712Z,55.19
2023-05-19T02:39:00.666Z,55.19
2023-05-19T02:40:00.640Z,55.19
2023-05-19T02:41:00.766Z,55.08
2023-05-19T02:42:00.653Z,55.08
2023-05-19T02:43:00.751Z,55.08
2023-05-19T02:44:00.740Z,55.08
2023-05-19T02:45:00.707Z,55.08
2023-05-19T02:46:00.753Z,55.33
2023-05-19T02:47:00.705Z,55.33
2023-05-19T02:48:00.698Z,55.33
2023-05-19T02:49:00.658Z,55.33
2023-05-19T02:50:00.682Z,55.33
2023-05-19T02:51:00.599Z,55.29
2023-05-19T02:52:01.194Z,55.29
2023-05-19T02:53:00.606Z,55.29
2023-05-19T02:54:00.589Z,55.29
2023-05-19T02:55:00.749Z,55.29
2023-05-19T02:56:00.640Z,55.37
2023-05-19T02:57:00.795Z,55.37
2023-05-19T02:58:00.550Z,55.37
2023-05-19T02:59:00.635Z,55.37
2023-05-19T03:00:00.680Z,55.37
2023-05-19T03:01:00.568Z,55.40
2023-05-19T03:02:01.072Z,55.40
2023-05-19T03:03:00.703Z,55.40
2023-05-19T03:04:01.150Z,55.40
2023-05-19T03:05:00.643Z,55.40
2023-05-19T03:06:00.611Z,55.79
2023-05-19T03:07:00.728Z,55.79
2023-05-19T03:08:00.574Z,55.79
2023-05-19T03:09:00.584Z,55.79
2023-05-19T03:10:00.733Z,55.79
2023-05-19T03:11:01.060Z,55.87
2023-05-19T03:12:00.590Z,55.87
2023-05-19T03:13:00.577Z,55.87
2023-05-19T03:14:00.568Z,55.87
2023-05-19T03:15:00.589Z,55.87
2023-05-19T03:16:00.702Z,56.10
2023-05-19T03:17:00.633Z,56.10
2023-05-19T03:18:00.613Z,56.10
2023-05-19T03:19:00.791Z,56.10
2023-05-19T03:20:00.655Z,56.10
2023-05-19T03:21:00.538Z,56.11
2023-05-19T03:22:00.547Z,56.11
2023-05-19T03:23:00.530Z,56.11
2023-05-19T03:24:00.706Z,56.11
2023-05-19T03:25:00.580Z,56.11
2023-05-19T03:26:00.523Z,56.18
2023-05-19T03:27:00.596Z,56.18
2023-05-19T03:28:00.541Z,56.18
2023-05-19T03:29:00.567Z,56.18
2023-05-19T03:30:00.529Z,56.18
2023-05-19T03:31:00.576Z,56.19
2023-05-19T03:32:00.599Z,56.19
2023-05-19T03:33:00.567Z,56.19
2023-05-19T03:34:00.577Z,56.19
2023-05-19T03:35:00.542Z,56.19
2023-05-19T03:36:00.549Z,56.36
2023-05-19T03:37:00.532Z,56.36
2023-05-19T03:38:00.558Z,56.36
2023-05-19T03:39:00.536Z,56.36
2023-05-19T03:40:00.579Z,56.36
2023-05-19T03:41:00.526Z,56.33
2023-05-19T03:42:00.521Z,56.33
2023-05-19T03:43:00.607Z,56.33
2023-05-19T03:44:00.535Z,56.33
2023-05-19T03:45:00.600Z,56.33
2023-05-19T03:46:00.722Z,56.61
2023-05-19T03:47:00.533Z,56.61
2023-05-19T03:48:00.548Z,56.61
2023-05-19T03:49:00.566Z,56.61
2023-05-19T03:50:00.535Z,56.61
2023-05-19T03:51:00.570Z,56.64
2023-05-19T03:52:00.524Z,56.64
2023-05-19T03:53:00.536Z,56.64
2023-05-19T03:54:00.532Z,56.64
2023-05-19T03:55:00.540Z,56.64
2023-05-19T03:56:00.576Z,56.80
2023-05-19T03:57:00.844Z,56.80
2023-05-19T03:58:00.542Z,56.80
2023-05-19T03:59:00.544Z,56.80
2023-05-19T04:00:00.628Z,56.80
2023-05-19T04:01:00.522Z,57.20
2023-05-19T04:02:00.608Z,57.20
2023-05-19T04:03:00.749Z,57.20
2023-05-19T04:04:00.572Z,57.20
2023-05-19T04:05:00.524Z,57.20
2023-05-19T04:06:00.527Z,57.66
2023-05-19T04:07:00.536Z,57.66
2023-05-19T04:08:00.549Z,57.66
2023-05-19T04:09:01.313Z,57.66
2023-05-19T04:10:02.380Z,57.66
2023-05-19T04:11:00.601Z,57.84
2023-05-19T04:12:00.889Z,57.84
2023-05-19T04:13:00.620Z,57.84
2023-05-19T04:14:03.486Z,57.84
2023-05-19T04:15:00.607Z,57.84
2023-05-19T04:16:00.759Z,57.88
2023-05-19T04:17:00.574Z,57.88
2023-05-19T04:18:00.661Z,57.88
2023-05-19T04:19:00.655Z,57.88
2023-05-19T04:20:00.532Z,57.88
2023-05-19T04:21:00.542Z,57.99
2023-05-19T04:22:00.529Z,57.99
2023-05-19T04:23:00.535Z,57.99
2023-05-19T04:24:00.587Z,57.99
2023-05-19T04:25:00.539Z,57.99
2023-05-19T04:26:00.522Z,58.09
2023-05-19T04:27:00.577Z,58.09
2023-05-19T04:28:00.575Z,58.09
2023-05-19T04:29:00.527Z,58.09
2023-05-19T04:30:00.544Z,58.09
2023-05-19T04:31:00.559Z,58.10
2023-05-19T04:32:00.528Z,58.10
2023-05-19T04:33:00.623Z,58.10
2023-05-19T04:34:00.566Z,58.10
2023-05-19T04:35:00.558Z,58.10
2023-05-19T04:36:00.562Z,58.15
2023-05-19T04:37:00.961Z,58.15
2023-05-19T04:38:00.528Z,58.15
2023-05-19T04:39:00.526Z,58.15
2023-05-19T04:40:00.547Z,58.15
2023-05-19T04:41:00.538Z,58.06
2023-05-19T04:42:00.514Z,58.06
2023-05-19T04:43:00.534Z,58.06
2023-05-19T04:44:00.580Z,58.06
2023-05-19T04:45:00.531Z,58.06
2023-05-19T04:46:00.606Z,58.30
2023-05-19T04:47:01.055Z,58.30
2023-05-19T04:48:00.576Z,58.30
2023-05-19T04:49:00.545Z,58.30
2023-05-19T04:50:00.538Z,58.30
2023-05-19T04:51:00.547Z,58.25
2023-05-19T04:52:00.531Z,58.25
2023-05-19T04:53:00.527Z,58.25
2023-05-19T04:54:00.573Z,58.25
2023-05-19T04:55:00.555Z,58.25
2023-05-19T04:56:00.650Z,58.47
2023-05-19T04:57:00.650Z,58.47
2023-05-19T04:58:00.547Z,58.47
2023-05-19T04:59:00.545Z,58.47
2023-05-19T05:00:00.619Z,58.47
2023-05-19T05:01:00.532Z,58.40
2023-05-19T05:02:00.591Z,58.40
2023-05-19T05:03:00.654Z,58.40
2023-05-19T05:04:00.591Z,58.40
2023-05-19T05:05:00.594Z,58.40
2023-05-19T05:06:00.538Z,58.26
2023-05-19T05:07:00.547Z,58.26
2023-05-19T05:08:00.626Z,58.26
2023-05-19T05:09:00.587Z,58.26
2023-05-19T05:10:00.537Z,58.26
2023-05-19T05:11:00.765Z,58.25
2023-05-19T05:12:00.800Z,58.25
2023-05-19T05:13:00.780Z,58.25
2023-05-19T05:14:00.570Z,58.25
2023-05-19T05:15:00.760Z,58.25
2023-05-19T05:16:00.692Z,58.16
2023-05-19T05:17:00.691Z,58.16
2023-05-19T05:18:00.847Z,58.16
2023-05-19T05:19:01.062Z,58.16
2023-05-19T05:20:01.102Z,58.16
2023-05-19T05:21:00.641Z,58.04
2023-05-19T05:22:00.631Z,58.04
2023-05-19T05:23:00.712Z,58.04
2023-05-19T05:24:00.568Z,58.04
2023-05-19T05:25:00.924Z,58.04
2023-05-19T05:26:05.363Z,58.15
2023-05-19T05:27:00.520Z,58.15
2023-05-19T05:28:00.589Z,58.15
2023-05-19T05:29:00.799Z,58.15
2023-05-19T05:30:00.559Z,58.15
2023-05-19T05:31:00.542Z,58.34
2023-05-19T05:32:00.612Z,58.34
2023-05-19T05:33:01.102Z,58.34
2023-05-19T05:34:00.520Z,58.34
2023-05-19T05:35:00.547Z,58.34
2023-05-19T05:36:00.527Z,58.65
2023-05-19T05:37:00.510Z,58.65
2023-05-19T05:38:01.082Z,58.65
2023-05-19T05:39:00.607Z,58.65
2023-05-19T05:40:00.577Z,58.65
2023-05-19T05:41:00.650Z,58.66
2023-05-19T05:42:00.518Z,58.66
2023-05-19T05:43:00.514Z,58.66
2023-05-19T05:44:00.824Z,58.66
2023-05-19T05:45:00.582Z,58.66
2023-05-19T05:46:00.605Z,58.67
2023-05-19T05:47:01.100Z,58.67
2023-05-19T05:48:00.747Z,58.67
2023-05-19T05:49:00.731Z,58.67
2023-05-19T05:50:00.690Z,58.67
2023-05-19T05:51:00.616Z,58.63
2023-05-19T05:52:06.341Z,58.63
2023-05-19T05:53:00.660Z,58.63
2023-05-19T05:54:00.835Z,58.63
2023-05-19T05:55:00.652Z,58.63
2023-05-19T05:56:00.595Z,58.52
2023-05-19T05:57:00.744Z,58.52
2023-05-19T05:58:00.553Z,58.52
2023-05-19T05:59:00.891Z,58.52
2023-05-19T06:00:00.548Z,58.52
2023-05-19T06:01:00.552Z,57.80
2023-05-19T06:02:00.559Z,57.80
2023-05-19T06:03:00.709Z,57.80
2023-05-19T06:04:00.575Z,57.80
2023-05-19T06:05:00.676Z,57.80
2023-05-19T06:06:00.623Z,58.67
2023-05-19T06:07:00.531Z,58.67
2023-05-19T06:08:00.551Z,58.67
2023-05-19T06:09:00.612Z,58.67
2023-05-19T06:10:00.605Z,58.67
2023-05-19T06:11:00.719Z,58.54
2023-05-19T06:12:00.556Z,58.54
2023-05-19T06:13:00.533Z,58.54
2023-05-19T06:14:00.553Z,58.54
2023-05-19T06:15:01.511Z,58.54
2023-05-19T06:16:02.224Z,58.86
2023-05-19T06:17:00.511Z,58.86
2023-05-19T06:18:00.611Z,58.86
2023-05-19T06:19:00.567Z,58.86
2023-05-19T06:20:01.368Z,58.86
2023-05-19T06:21:00.536Z,58.62
2023-05-19T06:22:00.560Z,58.62
2023-05-19T06:23:00.569Z,58.62
2023-05-19T06:24:00.532Z,58.62
2023-05-19T06:25:00.579Z,58.62
2023-05-19T06:26:00.517Z,58.13
2023-05-19T06:27:00.531Z,58.13
2023-05-19T06:28:00.556Z,58.13
2023-05-19T06:29:00.537Z,58.13
2023-05-19T06:30:00.795Z,58.13
2023-05-19T06:31:00.565Z,57.65
2023-05-19T06:32:00.545Z,57.65
2023-05-19T06:33:00.638Z,57.65
2023-05-19T06:34:00.594Z,57.65
2023-05-19T06:35:00.559Z,57.65
2023-05-19T06:36:00.536Z,57.77
2023-05-19T06:37:00.523Z,57.77
2023-05-19T06:38:00.543Z,57.77
2023-05-19T06:39:02.608Z,57.77
2023-05-19T06:40:00.530Z,57.77
2023-05-19T06:41:00.533Z,57.23
2023-05-19T06:42:00.568Z,57.23
2023-05-19T06:43:00.567Z,57.23
2023-05-19T06:44:00.601Z,57.23
2023-05-19T06:45:00.611Z,57.23
2023-05-19T06:46:00.572Z,56.79
2023-05-19T06:47:00.586Z,56.79
2023-05-19T06:48:00.666Z,56.79
2023-05-19T06:49:00.599Z,56.79
2023-05-19T06:50:00.545Z,56.79
2023-05-19T06:51:00.531Z,56.30
2023-05-19T06:52:00.550Z,56.30
2023-05-19T06:53:00.564Z,56.30
2023-05-19T06:54:00.590Z,56.30
2023-05-19T06:55:00.670Z,56.30
2023-05-19T06:56:00.652Z,54.46
2023-05-19T06:57:00.525Z,54.46
2023-05-19T06:58:00.555Z,54.46
2023-05-19T06:59:00.486Z,54.46
2023-05-19T07:00:00.550Z,54.46
2023-05-19T07:01:00.534Z,52.62
2023-05-19T07:02:00.561Z,52.62
2023-05-19T07:03:00.578Z,52.62
2023-05-19T07:04:00.724Z,52.62
2023-05-19T07:05:00.534Z,52.62
2023-05-19T07:06:00.659Z,52.00
2023-05-19T07:07:00.592Z,52.00
2023-05-19T07:08:00.542Z,52.00
2023-05-19T07:09:00.548Z,52.00
2023-05-19T07:10:00.565Z,52.00
2023-05-19T07:11:00.534Z,50.73
2023-05-19T07:12:00.531Z,50.73
2023-05-19T07:13:00.533Z,50.73
2023-05-19T07:14:00.526Z,50.73
2023-05-19T07:15:00.607Z,50.73
2023-05-19T07:16:00.654Z,50.76
2023-05-19T07:17:00.570Z,50.76
2023-05-19T07:18:00.619Z,50.76
2023-05-19T07:19:00.600Z,50.76
2023-05-19T07:20:00.573Z,50.76
2023-05-19T07:21:00.537Z,50.49
2023-05-19T07:22:00.525Z,50.49
2023-05-19T07:23:00.528Z,50.49
2023-05-19T07:24:00.548Z,50.49
2023-05-19T07:25:00.538Z,50.49
2023-05-19T07:26:00.536Z,50.43
2023-05-19T07:27:00.568Z,50.43
2023-05-19T07:28:00.587Z,50.43
2023-05-19T07:29:00.538Z,50.43
2023-05-19T07:30:00.523Z,50.43
2023-05-19T07:31:00.541Z,50.84
2023-05-19T07:32:00.600Z,50.84
2023-05-19T07:33:00.606Z,50.84
2023-05-19T07:34:00.542Z,50.84
2023-05-19T07:35:00.565Z,50.84
2023-05-19T07:36:00.576Z,50.77
2023-05-19T07:37:00.540Z,50.77
2023-05-19T07:38:00.526Z,50.77
2023-05-19T07:39:00.629Z,50.77
2023-05-19T07:40:00.558Z,50.77
2023-05-19T07:41:01.051Z,50.81
2023-05-19T07:42:00.957Z,50.81
2023-05-19T07:43:00.512Z,50.81
2023-05-19T07:44:00.529Z,50.81
2023-05-19T07:45:00.644Z,50.81
2023-05-19T07:46:00.765Z,50.88
2023-05-19T07:47:00.778Z,50.88
2023-05-19T07:48:00.651Z,50.88
2023-05-19T07:49:00.527Z,50.88
2023-05-19T07:50:00.537Z,50.88
2023-05-19T07:51:00.977Z,50.93
2023-05-19T07:52:00.534Z,50.93
2023-05-19T07:53:00.539Z,50.93
2023-05-19T07:54:00.644Z,50.93
2023-05-19T07:55:00.531Z,50.93
2023-05-19T07:56:00.536Z,50.99
2023-05-19T07:57:00.533Z,50.99
2023-05-19T07:58:00.567Z,50.99
2023-05-19T07:59:00.536Z,50.99
2023-05-19T08:00:00.543Z,50.99
2023-05-19T08:01:00.569Z,51.08
2023-05-19T08:02:00.649Z,51.08
2023-05-19T08:03:00.600Z,51.08
2023-05-19T08:04:00.637Z,51.08
2023-05-19T08:05:00.542Z,51.08
2023-05-19T08:06:00.574Z,50.97
2023-05-19T08:07:00.533Z,50.97
2023-05-19T08:08:00.750Z,50.97
2023-05-19T08:09:00.522Z,50.97
2023-05-19T08:10:00.522Z,50.97
2023-05-19T08:11:01.500Z,50.99
2023-05-19T08:12:00.553Z,50.99
2023-05-19T08:13:00.587Z,50.99
2023-05-19T08:14:00.519Z,50.99
2023-05-19T08:15:01.842Z,50.99
2023-05-19T08:16:00.666Z,51.02
2023-05-19T08:17:00.536Z,51.02
2023-05-19T08:18:00.615Z,51.02
2023-05-19T08:19:00.577Z,51.02
2023-05-19T08:20:00.512Z,51.02
2023-05-19T08:21:00.544Z,51.08
2023-05-19T08:22:00.529Z,51.08
2023-05-19T08:23:00.547Z,51.08
2023-05-19T08:24:00.599Z,51.08
2023-05-19T08:25:00.549Z,51.08
2023-05-19T08:26:00.581Z,51.38
2023-05-19T08:27:00.533Z,51.38
2023-05-19T08:28:00.526Z,51.38
2023-05-19T08:29:00.525Z,51.38
2023-05-19T08:30:00.527Z,51.38
2023-05-19T08:31:00.553Z,51.92
2023-05-19T08:32:00.523Z,51.92
2023-05-19T08:33:00.595Z,51.92
2023-05-19T08:34:00.542Z,51.92
2023-05-19T08:35:00.577Z,51.92
2023-05-19T08:36:00.539Z,52.82
2023-05-19T08:37:00.534Z,52.82
2023-05-19T08:38:00.532Z,52.82
2023-05-19T08:39:00.557Z,52.82
2023-05-19T08:40:00.538Z,52.82
2023-05-19T08:41:00.588Z,54.12
2023-05-19T08:42:00.578Z,54.12
2023-05-19T08:43:00.564Z,54.12
2023-05-19T08:44:00.519Z,54.12
2023-05-19T08:45:01.253Z,54.12
2023-05-19T08:46:02.664Z,54.57
2023-05-19T08:47:02.043Z,54.57
2023-05-19T08:48:00.604Z,54.57
2023-05-19T08:49:04.160Z,54.57
2023-05-19T08:50:03.579Z,54.57
2023-05-19T08:51:09.430Z,54.71
2023-05-19T08:52:08.678Z,54.71
2023-05-19T08:53:03.576Z,54.71
2023-05-19T08:54:07.985Z,54.71
2023-05-19T08:55:03.788Z,54.71
2023-05-19T08:56:03.839Z,55.00
2023-05-19T08:57:00.840Z,55.00
2023-05-19T08:58:02.302Z,55.00
2023-05-19T08:59:01.157Z,55.00
2023-05-19T09:00:01.203Z,55.00
2023-05-19T09:01:01.256Z,55.31
2023-05-19T09:02:01.072Z,55.31
2023-05-19T09:03:17.741Z,55.31
2023-05-19T09:04:00.693Z,55.31
2023-05-19T09:05:01.012Z,55.31
2023-05-19T09:06:00.597Z,55.68
2023-05-19T09:07:00.519Z,55.68
2023-05-19T09:08:00.769Z,55.68
2023-05-19T09:09:00.557Z,55.68
2023-05-19T09:10:01.236Z,55.68
2023-05-19T09:11:00.571Z,55.39
2023-05-19T09:12:00.553Z,55.39
2023-05-19T09:13:00.516Z,55.39
2023-05-19T09:14:00.558Z,55.39
2023-05-19T09:15:00.620Z,55.39
2023-05-19T09:16:00.962Z,55.70
2023-05-19T09:17:00.667Z,55.70
2023-05-19T09:18:10.663Z,55.70
2023-05-19T09:19:00.602Z,55.70
2023-05-19T09:20:01.109Z,55.70
2023-05-19T09:21:00.736Z,55.57
2023-05-19T09:22:01.018Z,55.57
2023-05-19T09:23:00.548Z,55.57
2023-05-19T09:24:04.558Z,55.57
2023-05-19T09:25:00.507Z,55.57
2023-05-19T09:26:01.396Z,55.81
2023-05-19T09:27:00.665Z,55.81
2023-05-19T09:28:00.520Z,55.81
2023-05-19T09:29:00.535Z,55.81
2023-05-19T09:30:07.894Z,55.81
2023-05-19T09:31:02.226Z,55.31
2023-05-19T09:32:00.872Z,55.31
2023-05-19T09:33:00.594Z,55.31
2023-05-19T09:34:00.602Z,55.31
2023-05-19T09:35:01.709Z,55.31
2023-05-19T09:36:00.740Z,54.06
2023-05-19T09:37:00.588Z,54.06
2023-05-19T09:38:00.525Z,54.06
2023-05-19T09:39:00.517Z,54.06
2023-05-19T09:40:00.577Z,54.06
2023-05-19T09:41:00.772Z,54.54
2023-05-19T09:42:03.448Z,54.54
2023-05-19T09:43:04.041Z,54.54
2023-05-19T09:44:00.567Z,54.54
2023-05-19T09:45:02.277Z,54.54
2023-05-19T09:46:04.484Z,54.19
2023-05-19T09:47:00.528Z,54.19
2023-05-19T09:48:02.766Z,54.19
2023-05-19T09:49:08.469Z,54.19
2023-05-19T09:50:00.588Z,54.19
2023-05-19T09:51:00.914Z,54.04
2023-05-19T09:52:02.252Z,54.04
2023-05-19T09:53:00.637Z,54.04
2023-05-19T09:54:00.568Z,54.04
2023-05-19T09:55:00.996Z,54.04
2023-05-19T09:56:01.120Z,53.57
2023-05-19T09:57:01.608Z,53.57
2023-05-19T09:58:00.860Z,53.57
2023-05-19T09:59:02.447Z,53.57
2023-05-19T10:00:01.573Z,53.57
2023-05-19T10:01:00.769Z,53.06
2023-05-19T10:02:00.558Z,53.06
2023-05-19T10:03:02.861Z,53.06
2023-05-19T10:04:03.722Z,53.06
2023-05-19T10:05:01.458Z,53.06
2023-05-19T10:06:00.724Z,53.00
2023-05-19T10:07:02.450Z,53.00
2023-05-19T10:08:00.624Z,53.00
2023-05-19T10:09:00.862Z,53.00
2023-05-19T10:10:00.923Z,53.00
2023-05-19T10:11:01.274Z,52.88
2023-05-19T10:12:01.315Z,52.88
2023-05-19T10:13:01.172Z,52.88
2023-05-19T10:14:00.564Z,52.88
2023-05-19T10:15:00.717Z,52.88
2023-05-19T10:16:01.080Z,53.69
2023-05-19T10:17:00.745Z,53.69
2023-05-19T10:18:01.856Z,53.69
2023-05-19T10:19:01.269Z,53.69
2023-05-19T10:20:01.237Z,53.69
2023-05-19T10:21:01.322Z,53.60
2023-05-19T10:22:00.648Z,53.60
2023-05-19T10:23:00.555Z,53.60
2023-05-19T10:24:00.514Z,53.60
2023-05-19T10:25:00.532Z,53.60
2023-05-19T10:26:02.835Z,53.10
2023-05-19T10:27:04.204Z,53.10
2023-05-19T10:28:05.818Z,53.10
2023-05-19T10:29:01.185Z,53.10
2023-05-19T10:30:03.254Z,53.10
2023-05-19T10:31:01.542Z,53.07
2023-05-19T10:32:03.654Z,53.07
2023-05-19T10:33:02.683Z,53.07
2023-05-19T10:34:10.481Z,53.07
2023-05-19T10:35:04.140Z,53.07
2023-05-19T10:36:00.478Z,52.94
2023-05-19T10:37:10.386Z,52.94
2023-05-19T10:38:00.493Z,52.94
2023-05-19T10:39:10.389Z,52.94
2023-05-19T10:40:04.396Z,52.94
2023-05-19T10:41:10.408Z,53.07
2023-05-19T10:42:10.333Z,53.07
2023-05-19T10:43:07.831Z,53.07
2023-05-19T10:44:00.490Z,53.07
2023-05-19T10:45:10.420Z,53.07
2023-05-19T10:46:00.585Z,52.08
2023-05-19T10:47:00.587Z,52.08
2023-05-19T10:48:00.642Z,52.08
2023-05-19T10:49:00.518Z,52.08
2023-05-19T10:50:00.536Z,52.08
2023-05-19T10:51:00.565Z,51.52
2023-05-19T10:52:00.516Z,51.52
2023-05-19T10:53:01.407Z,51.52
2023-05-19T10:54:00.983Z,51.52
2023-05-19T10:55:00.546Z,51.52
2023-05-19T10:56:01.271Z,50.92
2023-05-19T10:57:00.521Z,50.92
2023-05-19T10:58:00.567Z,50.92
2023-05-19T10:59:01.024Z,50.92
2023-05-19T11:00:02.429Z,50.92
2023-05-19T11:01:00.539Z,50.63
2023-05-19T11:02:04.107Z,50.63
2023-05-19T11:03:10.437Z,50.63
2023-05-19T11:04:04.767Z,50.63
2023-05-19T11:05:06.432Z,50.63
2023-05-19T11:06:10.404Z,52.00
2023-05-19T11:07:00.838Z,52.00
2023-05-19T11:08:00.524Z,52.00
2023-05-19T11:09:08.248Z,52.00
2023-05-19T11:10:04.643Z,52.00
2023-05-19T11:11:10.380Z,52.46
2023-05-19T11:12:01.688Z,52.46
2023-05-19T11:13:00.585Z,52.46
2023-05-19T11:14:00.554Z,52.46
2023-05-19T11:15:02.029Z,52.46
2023-05-19T11:16:05.996Z,52.88
2023-05-19T11:17:00.693Z,52.88
2023-05-19T11:18:00.679Z,52.88
2023-05-19T11:19:00.589Z,52.88
2023-05-19T11:20:00.561Z,52.88
2023-05-19T11:21:00.735Z,54.12
2023-05-19T11:22:10.381Z,54.12
2023-05-19T11:23:04.750Z,54.12
2023-05-19T11:24:00.690Z,54.12
2023-05-19T11:25:00.526Z,54.12
2023-05-19T11:26:01.023Z,55.85
2023-05-19T11:27:10.397Z,55.85
2023-05-19T11:28:01.413Z,55.85
2023-05-19T11:29:00.578Z,55.85
2023-05-19T11:30:09.039Z,55.85
2023-05-19T11:31:01.198Z,57.53
2023-05-19T11:32:00.655Z,57.53
2023-05-19T11:33:00.657Z,57.53
2023-05-19T11:34:00.572Z,57.53
2023-05-19T11:35:01.110Z,57.53
2023-05-19T11:36:00.559Z,57.99
2023-05-19T11:37:00.550Z,57.99
2023-05-19T11:38:00.799Z,57.99
2023-05-19T11:39:01.013Z,57.99
2023-05-19T11:40:01.248Z,57.99
2023-05-19T11:41:00.564Z,58.31
2023-05-19T11:42:00.611Z,58.31
2023-05-19T11:43:00.514Z,58.31
2023-05-19T11:44:00.538Z,58.31
2023-05-19T11:45:00.904Z,58.31
2023-05-19T11:46:00.651Z,57.32
2023-05-19T11:47:00.637Z,57.32
2023-05-19T11:48:03.077Z,57.32
2023-05-19T11:49:00.567Z,57.32
2023-05-19T11:50:00.616Z,57.32
2023-05-19T11:51:00.542Z,57.40
2023-05-19T11:52:00.577Z,57.40
2023-05-19T11:53:00.559Z,57.40
2023-05-19T11:54:01.537Z,57.40
2023-05-19T11:55:00.644Z,57.40
2023-05-19T11:56:03.575Z,57.64
2023-05-19T11:57:00.808Z,57.64
2023-05-19T11:58:04.449Z,57.64
2023-05-19T11:59:00.522Z,57.64
2023-05-19T12:00:00.928Z,57.64
2023-05-19T12:01:02.641Z,57.27
2023-05-19T12:02:01.865Z,57.27
2023-05-19T12:03:00.574Z,57.27
2023-05-19T12:04:02.136Z,57.27
2023-05-19T12:05:00.571Z,57.27
2023-05-19T12:06:02.325Z,57.12
2023-05-19T12:07:00.559Z,57.12
2023-05-19T12:08:01.327Z,57.12
2023-05-19T12:09:00.519Z,57.12
2023-05-19T12:10:00.564Z,57.12
2023-05-19T12:11:00.572Z,56.83
2023-05-19T12:12:01.560Z,56.83
2023-05-19T12:13:00.513Z,56.83
2023-05-19T12:14:00.722Z,56.83
2023-05-19T12:15:01.523Z,56.83
2023-05-19T12:16:02.329Z,56.76
2023-05-19T12:17:10.383Z,56.76
2023-05-19T12:18:01.058Z,56.76
2023-05-19T12:19:00.939Z,56.76
2023-05-19T12:20:00.581Z,56.76
2023-05-19T12:21:00.553Z,56.21
2023-05-19T12:22:02.214Z,56.21
2023-05-19T12:23:01.267Z,56.21
2023-05-19T12:24:00.554Z,56.21
2023-05-19T12:25:01.009Z,56.21
2023-05-19T12:26:00.561Z,56.61
2023-05-19T12:27:04.510Z,56.61
2023-05-19T12:28:00.908Z,56.61
2023-05-19T12:29:00.570Z,56.61
2023-05-19T12:30:02.017Z,56.61
2023-05-19T12:31:01.318Z,55.96
2023-05-19T12:32:00.658Z,55.96
2023-05-19T12:33:00.683Z,55.96
2023-05-19T12:34:00.556Z,55.96
2023-05-19T12:35:01.847Z,55.96
2023-05-19T12:36:00.510Z,55.56
2023-05-19T12:37:01.132Z,55.56
2023-05-19T12:38:02.340Z,55.56
2023-05-19T12:39:00.577Z,55.56
2023-05-19T12:40:01.375Z,55.56
2023-05-19T12:41:00.526Z,55.36
2023-05-19T12:42:03.182Z,55.36
2023-05-19T12:43:00.518Z,55.36
2023-05-19T12:44:00.531Z,55.36
2023-05-19T12:45:03.353Z,55.36
2023-05-19T12:46:08.442Z,54.77
2023-05-19T12:47:03.154Z,54.77
2023-05-19T12:48:02.146Z,54.77
2023-05-19T12:49:00.576Z,54.77
2023-05-19T12:50:00.470Z,54.77
2023-05-19T12:51:00.595Z,54.01
2023-05-19T12:52:03.048Z,54.01